Nearby METAR Reports

 

KCOS - Colorado Springs, Colorado, USA
Distance from station: S 6mi, 9km
Updated: 02/20/2019 5:54pm
Few Clouds
Few Clouds
 Wind from SE
Wind: SE 3 mph , 6 km/h
Temperature: 30°F , -1°C
Dew Point: 5°F , -15°C
Humidity: 34%
Barometer: 29.61 inHg , 1002.7 hPa
Clouds: Few Clouds
Visibility: 10 miles , 16 km
Cloud details: Few Clouds 10000 ft
Few Clouds 20000 ft
2019/02/21 00:54 KCOS 210054Z 14003KT 10SM FEW100 FEW200 M01/M15 A2961 RMK AO2 SLP086 T10061150
KAFF - Usaf Academy/Cos, Colorado, USA
Distance from station: NW 7mi, 12km
Updated: 02/20/2019 5:58pm
Clear
Clear
 Wind from NW
Wind: NW 5 mph , 7 km/h
Temperature: 25°F , -4°C
Wind Chill: 19°F , -7°C
Dew Point: -0°F , -18°C
Humidity: 33%
Barometer: 29.59 inHg , 1002 hPa
Clouds: Clear
Visibility: 10 miles , 16 km
2019/02/21 00:58 KAFF 210058Z AUTO 31004KT 10SM CLR M04/M18 A2959 RMK AO2 SLP085 T10431178
 
KFLY - Co Spngs Meadow, Colorado, USA
Distance from station: ENE 8mi, 13km
Updated: 02/20/2019 6:15pm
Clear
Clear
 Wind from ESE
Wind: ESE 6 mph , 9 km/h
Temperature: 21°F , -6°C
Wind Chill: 13°F , -11°C
Dew Point: 7°F , -14°C
Humidity: 54%
Barometer: 29.62 inHg , 1003 hPa
Clouds: Clear
Visibility: 10 miles , 16 km
2019/02/21 01:15 KFLY 210115Z AUTO 12005KT 10SM CLR M06/M14 A2962 RMK AO2 T10621143
KFCS - Fort Carson, Colorado, USA
Distance from station: S 17mi, 27km
Updated: 02/20/2019 5:58pm
Clear
Clear
 Wind from WSW
Wind: WSW 8 mph , 13 km/h
Temperature: 30°F , -1°C
Wind Chill: 22°F , -6°C
Dew Point: 5°F , -15°C
Humidity: 34%
Barometer: 29.59 inHg , 1002 hPa
Clouds: Clear
Visibility: 10 miles , 16 km
2019/02/21 00:58 KFCS 210058Z AUTO 24007KT 10SM CLR M01/M15 A2959 RMK AO2 SLP097 T10131155 $
 
KMNH - Monument/Elbert, Colorado, USA
Distance from station: N 22mi, 35km
Updated: 02/20/2019 6:06pm
Clear
Clear
 Wind from SSW
Wind: SSW 7 mph , 11 km/h
Temperature: 23°F , -5°C
Wind Chill: 15°F , -9°C
Dew Point: -0°F , -18°C
Humidity: 36%
Barometer: 29.60 inHg , 1002.4 hPa
Clouds: Clear
Visibility: 10 miles , 16 km
2019/02/21 01:06 KMNH 210106Z AUTO 21006KT 10SM CLR M05/M18 A2960 RMK AO2
K1V6 - Canon City, Colorado, USA
Distance from station: SSW 39mi, 62km
Updated: 02/20/2019 6:10pm
Clear
Clear
 Wind from WNW
Wind: WNW 12 mph , 19 km/h
Temperature: 32°F , 0°C
Wind Chill: 23°F , -5°C
Dew Point: 9°F , -13°C
Humidity: 37%
Barometer: 29.63 inHg , 1003.4 hPa
Clouds: Clear
Visibility: 10 miles , 16 km
2019/02/21 01:10 K1V6 210110Z AUTO 29010KT 10SM CLR 00/M13 A2963 RMK AO2
 
KPUB - Pueblo, Colorado, USA
Distance from station: SSE 44mi, 71km
Updated: 02/20/2019 5:53pm
Clear
Clear
 Wind from calm
Wind: Calm
Temperature: 36°F , 2°C
Dew Point: 7°F , -14°C
Humidity: 30%
Barometer: 29.65 inHg , 1004.1 hPa
Clouds: Clear
Visibility: 10 miles , 16 km
2019/02/21 00:53 KPUB 210053Z 00000KT 10SM CLR 02/M14 A2965 RMK AO2 SLP072 T00221144
KAPA - Denver/Arapahoe, Colorado, USA
Distance from station: N 47mi, 75km
Updated: 02/20/2019 5:53pm
Few Clouds
Few Clouds
 Wind from ESE
Wind: ESE 13 mph , 20 km/h
Temperature: 25°F , -4°C
Wind Chill: 13°F , -11°C
Dew Point: 10°F , -12°C
Humidity: 54%
Barometer: 29.60 inHg , 1002.4 hPa
Clouds: Few Clouds
Visibility: 10 miles , 16 km
Cloud details: Few Clouds 10000 ft
Few Clouds 14000 ft
Few Clouds 22000 ft
2019/02/21 00:53 KAPA 210053Z 11011KT 10SM FEW100 FEW140 FEW220 M04/M12 A2960 RMK AO2 SLP086 T10391122